Time;durP1;ratioP1;P1;durP2;ratioP2;P2;SDS_P1;SDS_P2;PMS_P1;PMS_P2;Temp;Humidity;BMP_temperature;BMP_pressure;BME280_temperature;BME280_humidity;BME280_pressure;Samples;Min_cycle;Max_cycle;Signal;HPM_P1;HPM_P2
2021/12/31 04:00:44;;;;;;;10.13;3.17;;;12.70;99.90;;;;;;5878475;23;20058;-81
2021/12/31 04:03:11;;;;;;;10.80;2.78;;;12.70;99.90;;;;;;4978252;28;20046;-80
2021/12/31 04:05:40;;;;;;;13.23;2.85;;;12.70;99.90;;;;;;4979949;28;20058;-81
2021/12/31 04:08:06;;;;;;;5.65;2.45;;;12.70;99.90;;;;;;4979207;28;20046;-80
2021/12/31 04:10:32;;;;;;;11.82;3.10;;;12.70;99.90;;;;;;4979002;28;20065;-79
2021/12/31 04:12:58;;;;;;;9.23;2.60;;;12.70;99.90;;;;;;4979012;28;20495;-81
2021/12/31 04:15:24;;;;;;;7.72;2.50;;;12.80;99.90;;;;;;4978938;28;20038;-81
2021/12/31 04:17:50;;;;;;;9.43;2.85;;;12.80;99.90;;;;;;4979189;28;20125;-81
2021/12/31 04:23:36;;;;;;;12.05;2.72;;;12.80;99.90;;;;;;4940061;29;20055;-79
2021/12/31 04:26:03;;;;;;;12.27;3.10;;;12.80;99.90;;;;;;4961455;28;20073;-80
2021/12/31 04:28:29;;;;;;;11.35;3.33;;;12.80;99.90;;;;;;4978916;28;20034;-80
2021/12/31 04:30:56;;;;;;;9.73;3.10;;;12.90;99.90;;;;;;4979151;28;20046;-80
2021/12/31 04:33:22;;;;;;;8.82;3.20;;;12.80;99.90;;;;;;4978897;28;20038;-79
2021/12/31 04:35:47;;;;;;;7.80;2.95;;;12.80;99.90;;;;;;4978968;28;20041;-80
2021/12/31 04:38:13;;;;;;;8.43;3.40;;;12.90;99.90;;;;;;4978641;28;20038;-81
2021/12/31 04:40:39;;;;;;;9.32;3.72;;;12.90;99.90;;;;;;4978343;28;20472;-81
2021/12/31 04:43:04;;;;;;;7.63;3.95;;;12.90;99.90;;;;;;4978435;28;20445;-81
2021/12/31 04:45:30;;;;;;;11.40;3.40;;;13.00;99.90;;;;;;4962382;28;20136;-83
2021/12/31 04:47:56;;;;;;;8.05;3.00;;;13.00;99.90;;;;;;4978455;28;20149;-80
2021/12/31 04:50:21;;;;;;;8.05;3.28;;;13.10;99.90;;;;;;4978819;28;20542;-79
2021/12/31 04:52:47;;;;;;;10.80;3.50;;;13.20;99.90;;;;;;4962085;28;20034;-81
2021/12/31 04:55:13;;;;;;;9.50;3.63;;;13.20;99.90;;;;;;4978287;28;20144;-80
2021/12/31 04:57:38;;;;;;;8.20;2.70;;;13.20;99.90;;;;;;4978015;28;20046;-80
2021/12/31 05:00:07;;;;;;;8.20;3.33;;;13.20;99.90;;;;;;4978188;28;20042;-79
2021/12/31 05:02:33;;;;;;;6.72;3.58;;;13.20;99.90;;;;;;4961812;28;20046;-79
2021/12/31 05:05:01;;;;;;;8.27;3.33;;;13.30;99.90;;;;;;4978586;28;20050;-78
2021/12/31 05:07:27;;;;;;;7.95;3.05;;;13.30;99.90;;;;;;4962789;28;20385;-81
2021/12/31 05:09:53;;;;;;;6.47;3.00;;;13.30;99.90;;;;;;4977837;28;20119;-81
2021/12/31 05:12:24;;;;;;;8.65;3.58;;;13.30;99.90;;;;;;4977596;28;20153;-80
2021/12/31 05:14:50;;;;;;;8.02;3.58;;;13.30;99.90;;;;;;4961629;28;20045;-81
2021/12/31 05:17:15;;;;;;;8.30;3.38;;;13.30;99.90;;;;;;4962057;28;20049;-79
2021/12/31 05:19:43;;;;;;;8.25;3.13;;;13.30;99.90;;;;;;4978056;28;20050;-80
2021/12/31 05:22:10;;;;;;;7.82;3.45;;;13.30;99.90;;;;;;4977767;28;20097;-80
2021/12/31 05:24:36;;;;;;;8.95;3.00;;;13.30;99.90;;;;;;4978080;28;20153;-80
2021/12/31 05:27:02;;;;;;;7.50;3.00;;;13.30;99.90;;;;;;4977601;28;20050;-81
2021/12/31 05:29:28;;;;;;;8.63;3.42;;;13.30;99.90;;;;;;4978101;28;20538;-81
2021/12/31 05:31:53;;;;;;;9.20;2.78;;;13.30;99.90;;;;;;4977289;28;20145;-80
2021/12/31 05:34:19;;;;;;;9.38;3.10;;;13.30;99.90;;;;;;4978381;28;20041;-82
2021/12/31 05:36:45;;;;;;;7.35;3.10;;;13.30;99.90;;;;;;4977418;28;20077;-79
2021/12/31 05:39:13;;;;;;;6.13;2.58;;;13.30;99.90;;;;;;4961377;28;20129;-82
2021/12/31 05:41:39;;;;;;;6.88;2.63;;;13.30;99.90;;;;;;4977139;28;20038;-78
2021/12/31 05:44:06;;;;;;;7.82;3.10;;;13.20;99.90;;;;;;4961303;28;20050;-81
2021/12/31 05:46:32;;;;;;;7.88;3.00;;;13.20;99.90;;;;;;4977230;28;20041;-78
2021/12/31 05:48:58;;;;;;;8.40;2.78;;;13.20;99.90;;;;;;4977817;28;20361;-81
2021/12/31 05:51:26;;;;;;;9.40;2.75;;;13.30;99.90;;;;;;4961110;28;20081;-81
2021/12/31 05:53:52;;;;;;;7.05;2.38;;;13.20;99.90;;;;;;4977167;28;20081;-78
2021/12/31 05:56:17;;;;;;;7.38;2.70;;;13.20;99.90;;;;;;4994541;28;20049;-81
2021/12/31 05:58:43;;;;;;;4.35;2.15;;;13.20;99.90;;;;;;4961331;28;20387;-81
2021/12/31 06:01:09;;;;;;;5.80;2.22;;;13.30;99.90;;;;;;4976755;28;20048;-79
2021/12/31 06:03:34;;;;;;;7.68;2.33;;;13.20;99.90;;;;;;4994900;28;20121;-77
2021/12/31 06:06:00;;;;;;;8.40;2.42;;;13.30;99.90;;;;;;4977407;28;20125;-80
2021/12/31 06:08:25;;;;;;;7.60;2.25;;;13.30;99.90;;;;;;4976740;28;20058;-82
2021/12/31 06:10:51;;;;;;;6.32;2.03;;;13.30;99.90;;;;;;4977353;28;20034;-82
2021/12/31 06:13:17;;;;;;;6.60;2.50;;;13.30;99.90;;;;;;4960784;28;20049;-81
2021/12/31 06:15:43;;;;;;;7.43;1.98;;;13.30;99.90;;;;;;4976736;28;20093;-82
2021/12/31 06:18:10;;;;;;;6.68;2.42;;;13.30;99.90;;;;;;4976527;28;20046;-80
2021/12/31 06:20:36;;;;;;;4.95;2.20;;;13.20;99.90;;;;;;4960316;28;20053;-80
2021/12/31 06:23:02;;;;;;;6.53;2.33;;;13.30;99.90;;;;;;4975637;28;20038;-81
2021/12/31 06:25:28;;;;;;;6.03;2.30;;;13.30;99.90;;;;;;4976708;28;20499;-81
2021/12/31 06:27:54;;;;;;;9.30;2.85;;;13.30;99.90;;;;;;4993902;28;20510;-81
2021/12/31 06:30:20;;;;;;;5.97;1.90;;;13.30;99.90;;;;;;4976426;28;20122;-81
2021/12/31 06:32:45;;;;;;;4.20;1.98;;;13.20;99.90;;;;;;4976793;28;20139;-80
2021/12/31 06:35:11;;;;;;;5.72;2.35;;;13.20;99.90;;;;;;4994158;28;20038;-79
2021/12/31 06:37:37;;;;;;;4.72;2.17;;;13.20;99.90;;;;;;4976451;28;20034;-80
2021/12/31 06:40:06;;;;;;;6.50;1.83;;;13.20;99.90;;;;;;4960335;28;20042;-81
2021/12/31 06:42:35;;;;;;;5.45;2.05;;;13.10;99.90;;;;;;4976314;28;20050;-80
2021/12/31 06:45:01;;;;;;;3.42;1.38;;;13.10;99.90;;;;;;4976147;28;20046;-80
2021/12/31 06:47:26;;;;;;;6.85;2.70;;;13.10;99.90;;;;;;4976263;28;20043;-80
2021/12/31 06:49:52;;;;;;;7.53;2.22;;;13.10;99.90;;;;;;4976604;28;20042;-80
2021/12/31 06:52:17;;;;;;;4.63;2.03;;;13.20;99.90;;;;;;4976347;28;20050;-79
2021/12/31 06:54:43;;;;;;;5.85;1.75;;;13.10;99.90;;;;;;4976128;28;20048;-79
2021/12/31 06:57:08;;;;;;;8.65;2.25;;;13.10;99.90;;;;;;4993444;28;20046;-81
2021/12/31 06:59:34;;;;;;;9.20;2.17;;;13.10;99.90;;;;;;4976445;28;20074;-80
2021/12/31 07:02:00;;;;;;;4.00;1.60;;;13.10;99.90;;;;;;4976147;28;20050;-81
2021/12/31 07:04:25;;;;;;;6.00;1.80;;;13.10;99.90;;;;;;4976161;28;20050;-82
2021/12/31 07:06:51;;;;;;;8.00;2.10;;;13.20;99.90;;;;;;4975914;28;20039;-81
2021/12/31 07:09:16;;;;;;;3.67;1.45;;;13.10;99.90;;;;;;4975976;28;20086;-80
2021/12/31 07:11:42;;;;;;;5.57;2.03;;;13.10;99.90;;;;;;4976284;28;20045;-80
2021/12/31 07:14:07;;;;;;;6.47;2.00;;;13.10;99.90;;;;;;4975908;28;20180;-78
2021/12/31 07:16:33;;;;;;;6.50;2.20;;;13.00;99.90;;;;;;4976235;28;20477;-80
2021/12/31 07:18:59;;;;;;;5.25;1.90;;;13.00;99.90;;;;;;4976554;28;20115;-82
2021/12/31 07:21:25;;;;;;;7.18;2.03;;;13.00;99.90;;;;;;4975762;28;20134;-79
2021/12/31 07:23:50;;;;;;;3.13;1.42;;;12.90;99.90;;;;;;4975894;28;20065;-81
2021/12/31 07:26:16;;;;;;;4.75;2.10;;;12.90;99.90;;;;;;4960095;28;20042;-79
2021/12/31 07:28:41;;;;;;;5.53;2.10;;;12.80;99.90;;;;;;4975886;28;20492;-79
2021/12/31 07:31:11;;;;;;;5.72;2.20;;;12.80;99.90;;;;;;4959790;28;20038;-82
2021/12/31 07:33:38;;;;;;;4.70;2.00;;;12.80;99.90;;;;;;4976127;28;20057;-83
2021/12/31 07:36:03;;;;;;;7.28;2.47;;;12.80;99.90;;;;;;4979869;28;20046;-79
2021/12/31 07:38:35;;;;;;;5.50;2.30;;;12.80;99.90;;;;;;4979386;28;20053;-79
2021/12/31 07:41:01;;;;;;;7.70;2.40;;;12.80;99.90;;;;;;4979228;28;20046;-86
2021/12/31 07:43:27;;;;;;;6.13;2.40;;;12.70;99.90;;;;;;4979789;28;20377;-79
2021/12/31 07:45:53;;;;;;;8.85;2.67;;;12.70;99.90;;;;;;4979369;28;20057;-78
2021/12/31 07:48:20;;;;;;;5.85;2.42;;;12.70;99.90;;;;;;4979742;28;20494;-81
2021/12/31 07:50:46;;;;;;;7.70;2.60;;;12.70;99.90;;;;;;4979396;28;20050;-81
2021/12/31 07:53:12;;;;;;;7.65;2.58;;;12.60;99.90;;;;;;4996855;28;20034;-80
2021/12/31 07:55:38;;;;;;;7.70;2.83;;;12.70;99.90;;;;;;4979269;28;20034;-79
2021/12/31 07:58:05;;;;;;;6.57;2.85;;;12.70;99.90;;;;;;4963150;28;20464;-80
2021/12/31 08:00:31;;;;;;;7.47;2.70;;;12.70;99.90;;;;;;4996263;28;20484;-82
2021/12/31 08:02:58;;;;;;;6.00;2.30;;;12.70;99.90;;;;;;4996466;28;20038;-82
2021/12/31 08:05:25;;;;;;;6.38;2.42;;;12.80;99.90;;;;;;4979299;28;20369;-80
2021/12/31 08:07:51;;;;;;;6.72;2.42;;;12.80;99.90;;;;;;4979033;28;20042;-81
2021/12/31 08:10:17;;;;;;;5.50;2.53;;;12.90;99.90;;;;;;4978691;28;20042;-82
2021/12/31 08:12:42;;;;;;;6.43;2.22;;;12.90;99.90;;;;;;4996546;28;20543;-83
2021/12/31 08:15:08;;;;;;;9.40;2.63;;;12.90;99.90;;;;;;4962873;28;20062;-80
2021/12/31 08:17:34;;;;;;;6.68;3.03;;;12.90;99.90;;;;;;4978584;28;20046;-79
2021/12/31 08:20:00;;;;;;;5.80;3.00;;;12.90;99.90;;;;;;4978873;28;20042;-80
2021/12/31 08:22:26;;;;;;;7.55;2.83;;;13.00;99.90;;;;;;4996522;28;20054;-80
2021/12/31 08:24:51;;;;;;;8.25;2.50;;;12.90;99.90;;;;;;4978684;28;20046;-77
2021/12/31 08:27:17;;;;;;;6.65;2.50;;;13.00;99.90;;;;;;4978821;28;20495;-79
2021/12/31 08:29:43;;;;;;;5.38;2.40;;;13.00;99.90;;;;;;4978895;28;20038;-81
2021/12/31 08:32:09;;;;;;;6.55;2.05;;;13.00;99.90;;;;;;4978481;28;20040;-79
2021/12/31 08:34:34;;;;;;;4.47;2.20;;;13.00;99.90;;;;;;4978387;28;20476;-79
2021/12/31 08:37:01;;;;;;;5.82;2.20;;;12.90;99.90;;;;;;4978842;28;20444;-81
2021/12/31 08:39:26;;;;;;;6.13;2.75;;;13.00;99.90;;;;;;4978465;28;20049;-81
2021/12/31 08:41:52;;;;;;;5.28;2.35;;;12.90;99.90;;;;;;4978508;28;20046;-79
2021/12/31 08:44:18;;;;;;;6.68;2.70;;;12.90;99.90;;;;;;4978092;28;20058;-81
2021/12/31 08:46:44;;;;;;;8.55;2.92;;;12.90;99.90;;;;;;4978007;28;20042;-78
2021/12/31 08:49:10;;;;;;;4.95;2.20;;;12.90;99.90;;;;;;4978353;28;20065;-80
2021/12/31 08:51:36;;;;;;;10.80;2.78;;;12.90;99.90;;;;;;4978058;28;20038;-82
2021/12/31 08:54:01;;;;;;;9.07;2.90;;;12.90;99.90;;;;;;4995768;28;20038;-79
2021/12/31 08:56:27;;;;;;;9.90;2.80;;;12.90;99.90;;;;;;4978321;28;20046;-79
2021/12/31 08:58:53;;;;;;;6.93;2.65;;;12.90;99.90;;;;;;4977746;28;20103;-79
2021/12/31 09:01:19;;;;;;;8.18;3.10;;;12.90;99.90;;;;;;4977837;28;20415;-79
2021/12/31 09:03:44;;;;;;;6.93;2.97;;;12.90;99.90;;;;;;4977964;28;20092;-80
2021/12/31 09:06:11;;;;;;;5.70;2.80;;;12.90;99.90;;;;;;4978019;28;20069;-80
2021/12/31 09:08:37;;;;;;;8.02;2.50;;;12.80;99.90;;;;;;4977590;28;20057;-82
2021/12/31 09:11:03;;;;;;;4.70;2.55;;;12.90;99.90;;;;;;4977818;28;20129;-81
2021/12/31 09:13:28;;;;;;;6.20;2.88;;;12.90;99.90;;;;;;4977767;28;20126;-81
2021/12/31 09:15:55;;;;;;;7.72;2.70;;;12.80;99.90;;;;;;4977357;28;20046;-80
2021/12/31 09:18:21;;;;;;;7.55;2.40;;;12.80;99.90;;;;;;4977467;28;20042;-79
2021/12/31 09:20:48;;;;;;;7.60;2.47;;;12.80;99.90;;;;;;4977622;28;20044;-81
2021/12/31 09:23:14;;;;;;;7.28;2.30;;;12.90;99.90;;;;;;4961276;28;20046;-79
2021/12/31 09:25:39;;;;;;;6.35;2.83;;;12.90;99.90;;;;;;4977966;28;20045;-80
2021/12/31 09:28:05;;;;;;;8.52;2.78;;;12.90;99.90;;;;;;4977313;28;20508;-81
2021/12/31 09:30:30;;;;;;;5.82;2.50;;;12.90;99.90;;;;;;4977256;28;20074;-80
2021/12/31 09:32:56;;;;;;;8.13;2.67;;;12.90;99.90;;;;;;4977459;28;20042;-80
2021/12/31 09:35:22;;;;;;;6.28;2.67;;;12.80;99.90;;;;;;4975857;28;20030;-79
2021/12/31 09:37:47;;;;;;;7.45;2.90;;;12.90;99.90;;;;;;4977452;28;20046;-80
2021/12/31 09:40:15;;;;;;;7.15;2.95;;;12.80;99.90;;;;;;4960823;28;20385;-78
2021/12/31 09:43:04;;;;;;;9.45;3.13;;;12.80;99.90;;;;;;4977379;28;20050;-80
2021/12/31 09:45:32;;;;;;;8.13;2.58;;;12.70;99.90;;;;;;4977336;28;20046;-81
2021/12/31 09:47:59;;;;;;;6.65;3.45;;;12.70;99.90;;;;;;4960791;28;20081;-80
2021/12/31 09:50:27;;;;;;;7.32;3.88;;;12.70;99.90;;;;;;4976730;28;20038;-79
2021/12/31 09:52:56;;;;;;;9.65;2.92;;;12.70;99.90;;;;;;4976701;28;20049;-79
2021/12/31 09:55:38;;;;;;;6.30;3.13;;;12.60;99.90;;;;;;4976709;28;20054;-80
2021/12/31 09:58:04;;;;;;;7.65;4.20;;;12.60;99.90;;;;;;4976835;28;20097;-79
2021/12/31 10:00:30;;;;;;;6.13;2.90;;;12.60;99.90;;;;;;4976528;28;20505;-78
2021/12/31 10:03:29;;;;;;;7.95;2.60;;;12.60;99.90;;;;;;4976744;28;20042;-81
2021/12/31 10:06:10;;;;;;;7.35;4.20;;;12.60;99.90;;;;;;4935382;28;20447;-80
2021/12/31 10:08:44;;;;;;;10.57;3.20;;;12.60;99.90;;;;;;4980216;28;20049;-80
2021/12/31 10:11:18;;;;;;;6.88;2.95;;;12.60;99.90;;;;;;4979010;28;20087;-79
2021/12/31 10:13:45;;;;;;;5.93;2.70;;;12.60;99.90;;;;;;4978428;28;20042;-79
2021/12/31 10:16:27;;;;;;;9.73;3.80;;;12.50;99.90;;;;;;5008879;28;20041;-82
2021/12/31 10:19:19;;;;;;;13.00;5.88;;;12.60;99.90;;;;;;4962159;28;20046;-80
2021/12/31 10:21:50;;;;;;;14.32;6.75;;;12.50;99.90;;;;;;4977773;28;20089;-82
2021/12/31 10:24:38;;;;;;;17.25;6.55;;;12.60;99.90;;;;;;4977163;28;20042;-79
2021/12/31 10:27:17;;;;;;;12.05;6.25;;;12.60;99.90;;;;;;4994870;28;20042;-84
2021/12/31 10:29:57;;;;;;;9.38;5.05;;;12.60;99.90;;;;;;4976663;28;20042;-83
2021/12/31 10:32:28;;;;;;;9.00;4.03;;;12.60;99.90;;;;;;4976835;28;20058;-83
2021/12/31 10:35:07;;;;;;;9.57;4.57;;;12.60;99.90;;;;;;4993841;28;20090;-80
2021/12/31 10:37:57;;;;;;;13.27;6.20;;;12.60;99.90;;;;;;4993979;28;20037;-81
2021/12/31 10:40:42;;;;;;;9.77;4.45;;;12.60;99.90;;;;;;4976300;28;20057;-81
2021/12/31 10:43:23;;;;;;;5.47;3.35;;;12.60;99.90;;;;;;4976208;28;20042;-84
2021/12/31 10:45:54;;;;;;;7.45;3.33;;;12.40;99.90;;;;;;4976659;28;20057;-81
2021/12/31 10:48:20;;;;;;;8.57;4.32;;;12.30;99.90;;;;;;4960088;28;20049;-81
2021/12/31 10:50:52;;;;;;;12.57;6.35;;;12.20;99.90;;;;;;4976067;28;20042;-81
2021/12/31 10:53:34;;;;;;;10.02;5.13;;;12.20;99.90;;;;;;4993506;28;20084;-81
2021/12/31 10:56:07;;;;;;;12.32;4.95;;;12.00;99.90;;;;;;4976612;28;20058;-82
2021/12/31 10:58:34;;;;;;;9.60;4.47;;;11.80;99.90;;;;;;4994780;28;20096;-82
2021/12/31 11:01:01;;;;;;;11.13;4.70;;;11.70;99.90;;;;;;4959984;28;20050;-80
2021/12/31 11:03:27;;;;;;;10.65;4.68;;;11.50;99.90;;;;;;4976009;28;20390;-83
2021/12/31 11:05:57;;;;;;;8.93;4.53;;;11.40;99.90;;;;;;4975688;28;20038;-81
2021/12/31 11:08:23;;;;;;;13.88;5.75;;;11.40;99.90;;;;;;4975941;28;20495;-80
2021/12/31 11:10:51;;;;;;;10.75;4.03;;;11.40;99.90;;;;;;4997605;28;20043;-81
2021/12/31 11:13:19;;;;;;;12.35;4.90;;;11.40;99.90;;;;;;4980096;28;20046;-82
2021/12/31 11:15:46;;;;;;;9.35;5.40;;;11.40;99.90;;;;;;4977191;28;20042;-81
2021/12/31 11:18:18;;;;;;;7.53;4.55;;;11.40;99.90;;;;;;4997447;28;20046;-82
2021/12/31 11:20:46;;;;;;;14.18;4.72;;;11.40;99.90;;;;;;4979884;28;20096;-80
2021/12/31 11:23:12;;;;;;;11.95;5.35;;;11.40;99.90;;;;;;4997481;28;20092;-81
2021/12/31 11:25:50;;;;;;;12.32;5.28;;;11.40;99.90;;;;;;4973119;28;20042;-80
2021/12/31 11:28:27;;;;;;;17.50;5.93;;;11.40;99.90;;;;;;4995688;28;20392;-80
2021/12/31 11:30:53;;;;;;;11.90;5.32;;;11.40;99.90;;;;;;4995134;28;20102;-80
2021/12/31 11:33:26;;;;;;;9.98;4.90;;;11.30;99.90;;;;;;4995719;28;20042;-80
2021/12/31 11:35:59;;;;;;;8.82;4.57;;;11.30;99.90;;;;;;4959545;28;20051;-80
2021/12/31 11:38:25;;;;;;;9.10;4.57;;;11.30;99.90;;;;;;4960294;28;20125;-79
2021/12/31 11:41:09;;;;;;;12.85;4.95;;;11.30;99.90;;;;;;4960155;28;20557;-80
2021/12/31 11:43:38;;;;;;;10.38;5.03;;;11.40;99.90;;;;;;4960041;28;20054;-80
2021/12/31 11:46:10;;;;;;;12.25;5.18;;;11.30;99.90;;;;;;4959670;28;20130;-78
2021/12/31 11:51:35;;;;;;;15.05;8.60;;;11.30;99.90;;;;;;4959899;28;20133;-82
2021/12/31 11:54:01;;;;;;;13.20;6.03;;;11.40;99.90;;;;;;4960019;28;20059;-80
2021/12/31 11:56:33;;;;;;;16.05;7.03;;;11.30;99.90;;;;;;4960151;28;20496;-81
2021/12/31 11:59:08;;;;;;;16.98;7.20;;;11.40;99.90;;;;;;4943241;28;20576;-82
2021/12/31 12:01:36;;;;;;;13.40;6.28;;;11.30;99.90;;;;;;4958707;28;20093;-80
2021/12/31 12:04:23;;;;;;;18.05;7.45;;;11.30;99.90;;;;;;4943481;28;20089;-78
2021/12/31 12:07:07;;;;;;;16.58;7.68;;;11.30;99.90;;;;;;4943638;28;20441;-80
2021/12/31 12:09:35;;;;;;;17.90;8.70;;;11.20;99.90;;;;;;4959665;28;20035;-82
2021/12/31 12:12:11;;;;;;;20.60;9.05;;;11.20;99.90;;;;;;4943752;28;20039;-81
2021/12/31 12:14:45;;;;;;;17.90;7.95;;;11.20;99.90;;;;;;4944818;28;20434;-87
2021/12/31 12:17:30;;;;;;;16.08;6.68;;;11.20;99.90;;;;;;4960063;28;20065;-82
2021/12/31 12:20:02;;;;;;;17.35;6.95;;;11.20;99.90;;;;;;4958232;28;20050;-82
2021/12/31 12:22:40;;;;;;;16.10;7.10;;;11.10;99.90;;;;;;4968859;28;20049;-82
2021/12/31 12:25:21;;;;;;;17.88;7.78;;;11.20;99.90;;;;;;4978503;28;20089;-84
2021/12/31 12:28:07;;;;;;;12.85;6.20;;;11.10;99.90;;;;;;4978024;28;20045;-82
2021/12/31 12:30:44;;;;;;;15.90;6.45;;;11.10;99.90;;;;;;4966746;28;20685;-81
2021/12/31 12:35:41;;;;;;;22.40;7.35;;;11.10;99.90;;;;;;4965803;28;20109;-82
2021/12/31 12:38:14;;;;;;;18.58;8.75;;;11.10;99.90;;;;;;4978515;28;20396;-82
2021/12/31 12:40:48;;;;;;;20.13;8.45;;;11.00;99.90;;;;;;4978058;28;20035;-82
2021/12/31 12:43:32;;;;;;;13.75;7.13;;;11.10;99.90;;;;;;4968545;28;20051;-81
2021/12/31 12:46:03;;;;;;;13.70;5.75;;;11.00;99.90;;;;;;4962051;28;20054;-83
2021/12/31 12:48:34;;;;;;;18.83;7.60;;;11.00;99.90;;;;;;4993920;28;20076;-82
2021/12/31 12:51:02;;;;;;;11.30;5.97;;;11.00;99.90;;;;;;4978165;28;20057;-82
2021/12/31 12:53:30;;;;;;;11.80;6.13;;;11.00;99.90;;;;;;4979639;28;20125;-81
2021/12/31 12:56:07;;;;;;;12.63;5.95;;;11.00;99.90;;;;;;4977631;28;20089;-81
2021/12/31 12:58:35;;;;;;;14.55;6.78;;;11.00;99.90;;;;;;4995639;28;20088;-80
2021/12/31 13:01:06;;;;;;;14.63;6.18;;;11.00;99.90;;;;;;4977910;28;20045;-81
2021/12/31 13:03:44;;;;;;;12.60;5.75;;;11.00;99.90;;;;;;4962143;28;20049;-81
2021/12/31 13:06:10;;;;;;;15.13;7.40;;;10.90;99.90;;;;;;4977753;28;20103;-81
2021/12/31 13:08:35;;;;;;;13.13;6.07;;;10.90;99.90;;;;;;4968761;28;20047;-82
2021/12/31 13:11:02;;;;;;;17.33;7.07;;;10.90;99.90;;;;;;4991699;28;20546;-81
2021/12/31 13:13:32;;;;;;;21.60;6.85;;;10.90;99.90;;;;;;4974212;28;20042;-81
2021/12/31 13:15:58;;;;;;;18.10;7.32;;;10.90;99.90;;;;;;4968602;28;20053;-81
2021/12/31 13:18:36;;;;;;;26.63;6.40;;;10.90;99.90;;;;;;4964556;28;20039;-81
2021/12/31 13:21:08;;;;;;;21.08;8.00;;;10.90;99.90;;;;;;4973018;28;20038;-81
2021/12/31 13:23:35;;;;;;;21.95;8.32;;;10.90;99.90;;;;;;4971181;28;20125;-81
2021/12/31 13:26:28;;;;;;;25.33;8.02;;;10.90;99.90;;;;;;4965103;28;20125;-83
2021/12/31 13:28:59;;;;;;;18.67;7.35;;;10.80;99.90;;;;;;4976518;28;20062;-82
2021/12/31 13:31:42;;;;;;;18.55;6.70;;;10.80;99.90;;;;;;4976294;28;20488;-82
2021/12/31 13:34:17;;;;;;;20.17;6.90;;;10.90;99.90;;;;;;4941891;28;20050;-82
2021/12/31 13:36:46;;;;;;;20.33;6.20;;;10.90;99.90;;;;;;4968973;28;20496;-81
2021/12/31 13:39:31;;;;;;;22.33;6.63;;;10.90;99.90;;;;;;4968353;28;20377;-81
2021/12/31 13:42:05;;;;;;;34.47;12.23;;;10.90;99.90;;;;;;4972570;28;20042;-81
2021/12/31 13:44:33;;;;;;;24.63;7.03;;;10.90;99.90;;;;;;4969929;28;20057;-81
2021/12/31 13:47:16;;;;;;;23.23;6.32;;;10.90;99.90;;;;;;4959877;28;20451;-82
2021/12/31 13:49:57;;;;;;;17.88;6.00;;;11.00;99.90;;;;;;4993921;28;20038;-81
2021/12/31 13:52:28;;;;;;;23.00;9.45;;;11.00;99.90;;;;;;4966394;28;20039;-81
2021/12/31 13:54:59;;;;;;;22.27;6.05;;;11.00;99.90;;;;;;4977016;28;20046;-82
2021/12/31 13:57:29;;;;;;;18.58;5.72;;;11.00;99.90;;;;;;4951739;28;20073;-81
2021/12/31 14:00:16;;;;;;;23.73;5.90;;;11.00;99.90;;;;;;4976937;28;20439;-81
2021/12/31 14:02:42;;;;;;;30.05;9.52;;;11.10;99.90;;;;;;4959218;28;20042;-81
2021/12/31 14:05:12;;;;;;;20.77;6.00;;;11.10;99.90;;;;;;4965234;28;20086;-81
2021/12/31 14:10:32;;;;;;;25.05;6.07;;;11.00;99.90;;;;;;4976944;28;20046;-81
2021/12/31 14:13:08;;;;;;;31.75;8.05;;;11.10;99.90;;;;;;4960518;28;20043;-81
2021/12/31 14:15:39;;;;;;;21.30;8.68;;;11.10;99.90;;;;;;4975871;28;20043;-81
2021/12/31 14:18:06;;;;;;;18.15;5.30;;;11.10;99.90;;;;;;4964944;28;20050;-82
2021/12/31 14:20:34;;;;;;;30.35;10.25;;;11.10;99.90;;;;;;4974764;28;20092;-83
2021/12/31 14:23:01;;;;;;;35.17;10.63;;;11.10;99.90;;;;;;4973666;28;20057;-83
2021/12/31 14:25:35;;;;;;;24.92;9.43;;;11.10;99.90;;;;;;4967576;28;20054;-82
2021/12/31 14:28:01;;;;;;;72.43;31.02;;;11.10;99.90;;;;;;4966155;28;20050;-83
2021/12/31 14:30:38;;;;;;;27.05;7.90;;;11.20;99.90;;;;;;4963986;28;20068;-82
2021/12/31 14:33:04;;;;;;;35.90;17.35;;;11.20;99.90;;;;;;4963204;28;20046;-82
2021/12/31 14:35:35;;;;;;;63.47;30.35;;;11.20;99.90;;;;;;4974418;28;20504;-81
2021/12/31 14:38:04;;;;;;;33.65;16.85;;;11.20;99.90;;;;;;4988831;28;20026;-82
2021/12/31 14:40:30;;;;;;;100.22;56.33;;;11.20;99.90;;;;;;4980382;28;20096;-82
2021/12/31 14:42:56;;;;;;;100.47;49.10;;;11.20;99.90;;;;;;4987719;28;20042;-83
2021/12/31 14:45:22;;;;;;;24.90;8.40;;;11.20;99.90;;;;;;4968216;28;20105;-83
2021/12/31 14:47:49;;;;;;;25.58;6.82;;;11.20;99.90;;;;;;4975875;28;20050;-81
2021/12/31 14:50:17;;;;;;;24.33;6.13;;;11.10;99.90;;;;;;4983638;28;20034;-83
2021/12/31 14:52:47;;;;;;;22.15;5.95;;;11.10;99.90;;;;;;4974646;28;20058;-83
2021/12/31 14:55:15;;;;;;;25.90;6.60;;;11.10;99.90;;;;;;4986875;28;20065;-84
2021/12/31 14:57:43;;;;;;;38.10;12.27;;;11.10;99.90;;;;;;4984160;28;20046;-82
2021/12/31 15:00:11;;;;;;;34.47;12.75;;;11.10;99.90;;;;;;4976022;28;20463;-82
2021/12/31 15:02:37;;;;;;;103.10;40.67;;;11.10;99.90;;;;;;4956240;28;20054;-83
2021/12/31 15:05:03;;;;;;;38.08;15.27;;;11.10;99.90;;;;;;4956698;28;20071;-82
2021/12/31 15:07:29;;;;;;;75.47;40.15;;;11.10;99.90;;;;;;4956160;28;20043;-82
2021/12/31 15:09:56;;;;;;;37.00;7.00;;;11.10;99.90;;;;;;4956931;28;20414;-82
2021/12/31 15:12:22;;;;;;;26.92;10.88;;;11.00;99.90;;;;;;4981465;28;20078;-82
2021/12/31 15:14:47;;;;;;;22.67;7.45;;;11.10;99.90;;;;;;4979717;28;20442;-82
2021/12/31 15:17:14;;;;;;;23.13;7.05;;;11.00;99.90;;;;;;4991529;28;20046;-82
2021/12/31 15:19:40;;;;;;;23.92;8.80;;;10.90;99.90;;;;;;4957917;28;20094;-83
2021/12/31 15:22:07;;;;;;;19.55;6.07;;;10.90;99.90;;;;;;4966574;28;20054;-82
2021/12/31 15:24:33;;;;;;;26.73;6.35;;;10.80;99.90;;;;;;4975446;28;20050;-83
2021/12/31 15:27:00;;;;;;;25.73;9.68;;;10.80;99.90;;;;;;4974277;28;20054;-82
2021/12/31 15:29:27;;;;;;;28.98;9.68;;;10.80;99.90;;;;;;4977549;28;20042;-83
2021/12/31 15:31:53;;;;;;;22.02;6.40;;;10.70;99.90;;;;;;4974888;28;20050;-82
2021/12/31 15:34:19;;;;;;;33.50;10.80;;;10.70;99.90;;;;;;4975254;28;20042;-85
2021/12/31 15:36:45;;;;;;;23.70;7.85;;;10.70;99.90;;;;;;4959419;28;20054;-85
2021/12/31 15:39:12;;;;;;;26.50;7.30;;;10.70;99.90;;;;;;4957225;28;20473;-82
2021/12/31 15:41:45;;;;;;;23.27;6.68;;;10.60;99.90;;;;;;4955999;28;20047;-84
2021/12/31 15:44:12;;;;;;;40.28;12.63;;;10.70;99.90;;;;;;4956356;28;20089;-84
2021/12/31 15:46:42;;;;;;;17.85;5.55;;;10.60;99.90;;;;;;4956558;28;20057;-83
2021/12/31 15:49:09;;;;;;;31.55;8.27;;;10.70;99.90;;;;;;4972724;28;20104;-84
2021/12/31 15:51:37;;;;;;;27.80;10.20;;;10.70;99.90;;;;;;4975076;28;20524;-85
2021/12/31 15:54:07;;;;;;;21.20;7.97;;;10.70;99.90;;;;;;4961546;28;20085;-83
2021/12/31 15:56:37;;;;;;;78.10;37.42;;;10.70;99.90;;;;;;4978423;28;20042;-84
2021/12/31 15:59:03;;;;;;;44.33;18.75;;;10.70;99.90;;;;;;4978275;28;20054;-83
2021/12/31 16:01:29;;;;;;;38.55;10.77;;;10.70;99.90;;;;;;4978701;28;20097;-84
2021/12/31 16:03:55;;;;;;;23.83;8.18;;;10.70;99.90;;;;;;4974963;28;20050;-86
2021/12/31 16:06:21;;;;;;;40.25;18.80;;;10.70;99.90;;;;;;4943740;28;20054;-83
2021/12/31 16:08:48;;;;;;;38.38;20.35;;;10.70;99.90;;;;;;4945766;28;20039;-82
2021/12/31 16:11:13;;;;;;;23.10;8.63;;;10.70;99.90;;;;;;4959148;28;20041;-81
2021/12/31 16:13:39;;;;;;;29.40;14.32;;;10.80;99.90;;;;;;4971094;28;20118;-82
2021/12/31 16:16:05;;;;;;;40.53;21.48;;;10.70;99.90;;;;;;4979062;28;20042;-82
2021/12/31 16:18:32;;;;;;;17.75;5.05;;;10.70;99.90;;;;;;4967219;28;20567;-83
2021/12/31 16:20:58;;;;;;;23.38;7.75;;;10.80;99.90;;;;;;4959086;28;20132;-82
2021/12/31 16:23:24;;;;;;;52.10;23.98;;;10.70;99.90;;;;;;4985914;28;20042;-82
2021/12/31 16:25:50;;;;;;;36.00;12.90;;;10.70;99.90;;;;;;4978155;28;20046;-82
2021/12/31 16:28:16;;;;;;;23.58;8.05;;;10.70;99.90;;;;;;4977467;28;20042;-81
2021/12/31 16:30:42;;;;;;;33.25;8.07;;;10.70;99.90;;;;;;4977673;28;20038;-82
2021/12/31 16:33:07;;;;;;;27.00;7.65;;;10.60;99.90;;;;;;4995076;28;20042;-82
2021/12/31 16:35:33;;;;;;;28.75;6.63;;;10.60;99.90;;;;;;4996370;28;20109;-81
2021/12/31 16:37:58;;;;;;;28.88;7.32;;;10.60;99.90;;;;;;4977936;28;20443;-82
2021/12/31 16:40:24;;;;;;;23.45;6.32;;;10.50;99.90;;;;;;4978069;28;20054;-82
2021/12/31 16:42:50;;;;;;;30.85;7.97;;;10.50;99.90;;;;;;4960613;28;20045;-81
2021/12/31 16:45:17;;;;;;;24.77;6.65;;;10.50;99.90;;;;;;4977879;28;20046;-83
2021/12/31 16:47:44;;;;;;;29.10;7.07;;;10.40;99.90;;;;;;4994902;28;20078;-82
2021/12/31 16:50:11;;;;;;;26.40;6.78;;;10.40;99.90;;;;;;4962182;28;20041;-80
2021/12/31 16:52:36;;;;;;;36.10;9.20;;;10.40;99.90;;;;;;4977270;28;20428;-80
2021/12/31 16:55:07;;;;;;;33.80;10.32;;;10.40;99.90;;;;;;4995956;28;20039;-80
2021/12/31 16:57:33;;;;;;;62.53;27.80;;;10.40;99.90;;;;;;4978477;28;20046;-86
2021/12/31 16:59:59;;;;;;;44.13;18.48;;;10.40;99.90;;;;;;4962076;28;20100;-84